Terminal Aerodrome Forecast
Issued by NWS Greer, SC

Home | Current Version | Previous Version | Text Only | Print | Product List | Glossary On
Versions: 1 2 3 4 5 6 7 8 9 10 11 12 13 14 15 16 17 18 19 20 21 22 23 24 25
400
FTUS42 KGSP 302336
TAFGSP
TAF
KGSP 302336Z 0100/0124 16007KT P6SM VCTS SCT060CB
     FM010100 16008KT P6SM BKN050
     FM010500 17011KT P6SM BKN015
     FM010900 18012KT P6SM OVC008 PROB30 0110/0115 4SM -SHRA OVC003
     FM011500 19016G25KT 6SM -SHRA VCTS OVC020CB
     FM011900 22017G26KT 4SM TSRA OVC050CB
     FM012200 22014G22KT P6SM VCTS OVC040CB=

USA.gov is the U.S. government's official web portal to all federal, state and local government web resources and services.